Archival Weather

Chicago O'Hare International

Chicago, Illinois (KORD)

Report from: Saturday, December 31, 2022 2:51 AM CST
Current time: Monday, March 4, 2024 5:50 PM CST

Current weather – Weather history – Daily summaries
Weather forecast

Temperature-1.7°C (28.9°F)
Wind chill-3.8°C (25.2°F)
Dew point-4.4°C (24.1°F)
Winds 3 kts (1.5 m/s, 3.5 mph) Northwest (310°)
Visibility10 mi. (16.1 km)
Clouds Ceiling: Broken clouds 25,000 ft. (7,620 m)
Altimeter29.94 in.Hg (1014 mB)
Relative humidity82 %
Density altitude-2,019 ft. (-615 m)
Sea-level pressure101.4 kPa (1014 mB, 29.96 in.Hg)
Remarks Automated weather observing station with precipitation discriminator
Pressure falling, then rising
Flight conditions Visual Meteorological Conditions
Raw dataKORD 310851Z 31003KT 10SM BKN250 M02/M04 A2994 RMK AO2 SLP144 T10171044 55001
An error has occurred. This application may no longer respond until reloaded. Reload 🗙